createdAt,value
2022-11-05T05:03:14.211Z,5.60
2022-11-05T05:05:42.400Z,6.00
2022-11-05T05:08:10.564Z,6.10
2022-11-05T05:10:38.574Z,6.30
2022-11-05T05:13:06.898Z,6.10
2022-11-05T05:15:35.298Z,6.20
2022-11-05T05:18:04.474Z,6.00
2022-11-05T05:20:47.660Z,5.80
2022-11-05T05:23:15.643Z,5.50
2022-11-05T05:25:43.912Z,5.70
2022-11-05T05:28:12.200Z,5.90
2022-11-05T05:30:40.198Z,6.10
2022-11-05T05:33:08.675Z,5.90
2022-11-05T05:35:38.169Z,5.90
2022-11-05T05:38:06.493Z,5.80
2022-11-05T05:40:34.504Z,6.00
2022-11-05T05:43:02.544Z,6.10
2022-11-05T05:45:30.701Z,5.80
2022-11-05T05:47:58.696Z,5.60
2022-11-05T05:50:27.022Z,5.50
2022-11-05T05:52:56.381Z,5.70
2022-11-05T05:55:24.388Z,5.60
2022-11-05T05:57:52.711Z,5.40
2022-11-05T06:00:20.857Z,5.30
2022-11-05T06:02:48.956Z,5.30
2022-11-05T06:05:17.297Z,5.00
2022-11-05T06:07:45.340Z,4.90
2022-11-05T06:10:15.460Z,5.10
2022-11-05T06:12:43.870Z,5.10
2022-11-05T06:15:12.054Z,5.00
2022-11-05T06:17:40.190Z,5.00
2022-11-05T06:20:09.603Z,5.20
2022-11-05T06:22:37.682Z,5.10
2022-11-05T06:25:06.683Z,5.10
2022-11-05T06:27:37.225Z,5.10
2022-11-05T06:30:05.946Z,5.10
2022-11-05T06:32:33.895Z,4.90
2022-11-05T06:35:02.227Z,4.80
2022-11-05T06:37:33.446Z,4.90
2022-11-05T06:40:03.772Z,5.00
2022-11-05T06:42:31.775Z,4.70
2022-11-05T06:45:01.160Z,4.90
2022-11-05T06:47:29.192Z,5.50
2022-11-05T06:49:57.386Z,5.70
2022-11-05T06:52:27.148Z,5.80
2022-11-05T06:54:55.094Z,5.60
2022-11-05T06:57:23.122Z,5.50
2022-11-05T06:59:53.569Z,5.40
2022-11-05T07:02:26.943Z,5.40
2022-11-05T07:04:55.108Z,5.20
2022-11-05T07:07:23.079Z,5.10
2022-11-05T07:09:53.490Z,5.40
2022-11-05T07:12:21.487Z,5.20
2022-11-05T07:14:49.460Z,5.50
2022-11-05T07:17:18.813Z,5.50
2022-11-05T07:19:48.222Z,5.80
2022-11-05T07:22:16.334Z,5.90
2022-11-05T07:24:47.168Z,6.20
2022-11-05T07:27:15.224Z,6.40
2022-11-05T07:29:43.391Z,6.60
2022-11-05T07:32:11.435Z,6.40
2022-11-05T07:34:39.439Z,6.60
2022-11-05T07:37:08.814Z,6.70
2022-11-05T07:39:37.152Z,6.60
2022-11-05T07:42:05.344Z,6.40
2022-11-05T07:44:33.634Z,6.20
2022-11-05T07:47:01.623Z,6.00
2022-11-05T07:49:29.652Z,5.90
2022-11-05T07:51:57.660Z,6.10
2022-11-05T07:54:27.208Z,6.10
2022-11-05T07:56:55.612Z,6.20
2022-11-05T07:59:23.623Z,6.30
2022-11-05T08:01:51.891Z,6.70
2022-11-05T08:04:20.934Z,6.70
2022-11-05T08:06:49.303Z,6.70
2022-11-05T08:09:17.440Z,6.90
2022-11-05T08:11:47.233Z,6.80
2022-11-05T08:14:15.261Z,6.80
2022-11-05T08:16:43.250Z,7.00
2022-11-05T08:19:11.392Z,6.90
2022-11-05T08:21:39.714Z,7.00
2022-11-05T08:24:08.348Z,7.10
2022-11-05T08:26:36.361Z,7.40
2022-11-05T08:29:06.481Z,7.50
2022-11-05T08:31:37.030Z,7.60
2022-11-05T08:34:05.064Z,7.60
2022-11-05T08:36:33.160Z,7.70
2022-11-05T08:39:01.452Z,7.80
2022-11-05T08:41:35.808Z,7.80
2022-11-05T08:44:05.394Z,7.80
2022-11-05T08:46:37.628Z,7.80
2022-11-05T08:49:08.440Z,7.90
2022-11-05T08:51:36.512Z,8.00
2022-11-05T08:54:04.827Z,8.00
2022-11-05T08:56:32.867Z,8.10
2022-11-05T08:59:01.214Z,8.20
2022-11-05T09:01:30.790Z,8.20
2022-11-05T09:03:58.903Z,8.20
2022-11-05T09:06:27.002Z,8.30
2022-11-05T09:08:54.963Z,8.40
2022-11-05T09:11:37.582Z,8.30
2022-11-05T09:14:11.292Z,8.40
2022-11-05T09:16:40.664Z,8.50
2022-11-05T09:19:08.992Z,8.50
2022-11-05T09:21:37.312Z,8.50
2022-11-05T09:24:05.622Z,8.70
2022-11-05T09:26:33.919Z,8.70
2022-11-05T09:29:02.516Z,8.80
2022-11-05T09:31:30.621Z,8.80
2022-11-05T09:34:00.084Z,8.80
2022-11-05T09:36:28.150Z,8.90
2022-11-05T09:38:56.196Z,8.90
2022-11-05T09:41:28.544Z,9.00
2022-11-05T09:43:59.193Z,9.00
2022-11-05T09:46:29.596Z,9.20
2022-11-05T09:49:03.338Z,9.30
2022-11-05T09:51:31.878Z,9.30
2022-11-05T09:54:00.670Z,9.40
2022-11-05T09:56:30.635Z,9.50
2022-11-05T09:59:02.210Z,9.60
2022-11-05T10:01:33.411Z,9.70
2022-11-05T10:04:07.467Z,9.70
2022-11-05T10:06:35.988Z,9.80
2022-11-05T10:09:08.393Z,9.80
2022-11-05T10:11:39.992Z,9.90
2022-11-05T10:14:14.740Z,9.90
2022-11-05T10:16:45.469Z,9.90
2022-11-05T10:19:22.032Z,10.20
2022-11-05T10:22:06.028Z,10.60
2022-11-05T10:24:34.869Z,10.60
2022-11-05T10:27:03.275Z,10.60
2022-11-05T10:29:34.519Z,10.60
2022-11-05T10:32:06.133Z,10.60
2022-11-05T10:34:38.583Z,10.50
2022-11-05T10:37:06.955Z,10.60
2022-11-05T10:39:35.499Z,10.70
2022-11-05T10:42:26.835Z,10.90
2022-11-05T10:44:59.466Z,10.90
2022-11-05T10:47:43.415Z,10.90
2022-11-05T10:50:14.600Z,11.00
2022-11-05T10:52:53.095Z,11.00
2022-11-05T10:55:25.395Z,11.20
2022-11-05T10:57:53.461Z,11.30
2022-11-05T11:00:24.165Z,11.20
2022-11-05T11:02:53.595Z,11.30
2022-11-05T11:05:25.046Z,11.50
2022-11-05T11:08:02.158Z,11.60
2022-11-05T11:10:31.981Z,11.70
2022-11-05T11:13:00.384Z,11.60
2022-11-05T11:15:32.578Z,11.70
2022-11-05T11:18:25.271Z,11.80
2022-11-05T11:20:54.849Z,11.50
2022-11-05T11:23:23.287Z,11.60
2022-11-05T11:25:54.563Z,11.70
2022-11-05T11:28:25.225Z,11.60
2022-11-05T11:31:04.380Z,11.60
2022-11-05T11:33:33.483Z,11.60
2022-11-05T11:36:03.213Z,11.70
2022-11-05T11:38:32.546Z,11.70
2022-11-05T11:41:09.167Z,11.70
2022-11-05T11:43:39.667Z,11.80
2022-11-05T11:46:15.746Z,11.80
2022-11-05T11:48:49.855Z,11.60
2022-11-05T11:51:21.691Z,11.60
2022-11-05T11:53:50.779Z,11.70
2022-11-05T11:56:20.624Z,11.60
2022-11-05T11:58:50.868Z,11.80
2022-11-05T12:01:51.670Z,11.90
2022-11-05T12:04:37.295Z,12.10
2022-11-05T12:07:14.802Z,12.20
2022-11-05T12:09:56.879Z,12.20
2022-11-05T12:12:30.133Z,12.30
2022-11-05T12:15:01.415Z,12.10
2022-11-05T12:17:40.466Z,11.80
2022-11-05T12:20:24.762Z,11.70
2022-11-05T12:23:18.501Z,11.70
2022-11-05T12:25:53.003Z,11.70
2022-11-05T12:28:36.093Z,11.50
2022-11-05T12:31:11.367Z,11.60
2022-11-05T12:33:52.394Z,11.60
2022-11-05T12:36:31.480Z,11.60
2022-11-05T12:39:19.679Z,11.60
2022-11-05T12:41:56.018Z,11.60
2022-11-05T12:44:44.175Z,11.50
2022-11-05T12:47:24.337Z,11.50
2022-11-05T12:50:02.036Z,11.50
2022-11-05T12:52:53.180Z,11.60
2022-11-05T12:55:24.626Z,11.60
2022-11-05T12:57:54.186Z,11.70
2022-11-05T13:00:24.349Z,11.80
2022-11-05T13:02:55.626Z,11.80
2022-11-05T13:05:30.561Z,11.90
2022-11-05T13:08:03.992Z,11.80
2022-11-05T13:10:38.106Z,11.80
2022-11-05T13:13:12.472Z,11.80
2022-11-05T13:15:42.772Z,11.80
2022-11-05T13:18:14.703Z,11.80
2022-11-05T13:20:46.057Z,11.50
2022-11-05T13:23:18.910Z,11.50
2022-11-05T13:25:54.120Z,11.60
2022-11-05T13:28:30.543Z,11.50
2022-11-05T13:31:01.374Z,11.50
2022-11-05T13:33:33.300Z,11.60
2022-11-05T13:36:18.606Z,11.60
2022-11-05T13:39:07.083Z,11.70
2022-11-05T13:41:46.950Z,11.70
2022-11-05T13:44:40.076Z,11.70
2022-11-05T13:47:29.606Z,11.70
2022-11-05T13:50:17.354Z,11.80
2022-11-05T13:53:04.075Z,11.80
2022-11-05T13:55:52.698Z,11.80
2022-11-05T13:58:51.080Z,11.70
2022-11-05T14:01:35.330Z,11.80
2022-11-05T14:04:04.213Z,11.80
2022-11-05T14:06:34.339Z,11.90
2022-11-05T14:09:04.951Z,11.90
2022-11-05T14:11:34.276Z,11.80
2022-11-05T14:14:05.320Z,11.70
2022-11-05T14:16:48.931Z,11.70
2022-11-05T14:19:35.818Z,11.60
2022-11-05T14:22:39.419Z,11.60
2022-11-05T14:25:44.612Z,11.60
2022-11-05T14:28:39.613Z,11.60
2022-11-05T14:31:40.968Z,11.60
2022-11-05T14:34:25.007Z,11.50
2022-11-05T14:37:25.665Z,11.50
2022-11-05T14:39:54.752Z,11.60
2022-11-05T14:42:26.141Z,11.50
2022-11-05T14:45:00.652Z,11.50
2022-11-05T14:47:33.435Z,11.50
2022-11-05T14:50:04.988Z,11.40
2022-11-05T14:52:34.365Z,11.50
2022-11-05T14:55:02.782Z,11.40
2022-11-05T14:58:01.741Z,11.40
2022-11-05T15:00:48.045Z,11.40
2022-11-05T15:03:39.775Z,11.40
2022-11-05T15:06:29.244Z,11.40
2022-11-05T15:09:14.577Z,11.20
2022-11-05T15:11:52.347Z,11.20
2022-11-05T15:14:23.974Z,11.20
2022-11-05T15:16:54.745Z,11.20
2022-11-05T15:19:32.371Z,11.20
2022-11-05T15:22:02.815Z,11.20
2022-11-05T15:24:31.720Z,11.20
2022-11-05T15:27:04.834Z,11.20
2022-11-05T15:29:33.769Z,11.20
2022-11-05T15:32:02.212Z,11.10
2022-11-05T15:34:33.016Z,11.10
2022-11-05T15:37:02.673Z,11.10
2022-11-05T15:39:39.775Z,11.10
2022-11-05T15:42:13.588Z,11.10
2022-11-05T15:44:43.551Z,11.10
2022-11-05T15:47:17.561Z,11.10
2022-11-05T15:49:48.725Z,11.00
2022-11-05T15:52:18.678Z,10.90
2022-11-05T15:54:46.743Z,10.90
2022-11-05T15:57:27.497Z,10.90
2022-11-05T15:59:55.560Z,10.90
2022-11-05T16:02:31.108Z,10.90
2022-11-05T16:05:01.185Z,10.80
2022-11-05T16:07:32.699Z,10.80
2022-11-05T16:10:01.974Z,10.70
2022-11-05T16:12:35.195Z,10.70
2022-11-05T16:15:18.825Z,10.60
2022-11-05T16:17:49.917Z,10.70
2022-11-05T16:20:28.875Z,10.60
2022-11-05T16:22:58.638Z,10.60
2022-11-05T16:25:45.634Z,10.60
2022-11-05T16:28:23.408Z,10.50
2022-11-05T16:30:58.602Z,10.50
2022-11-05T16:33:28.694Z,10.50
2022-11-05T16:35:58.194Z,10.40
2022-11-05T16:38:26.244Z,10.50
2022-11-05T16:40:54.571Z,10.50
2022-11-05T16:43:24.598Z,10.40
2022-11-05T16:45:54.991Z,10.40
2022-11-05T16:48:23.436Z,10.40
2022-11-05T16:50:51.846Z,10.40
2022-11-05T16:53:21.279Z,10.40
2022-11-05T16:55:49.324Z,10.40
2022-11-05T16:58:20.911Z,10.40
2022-11-05T17:00:52.424Z,10.30
2022-11-05T17:03:20.482Z,10.40
2022-11-05T17:05:48.760Z,10.40
2022-11-05T17:08:16.825Z,10.30
2022-11-05T17:10:46.646Z,10.40
2022-11-05T17:13:15.621Z,10.40
2022-11-05T17:15:44.623Z,10.40
2022-11-05T17:18:18.190Z,10.40
2022-11-05T17:20:48.201Z,10.30
2022-11-05T17:23:17.898Z,10.40
2022-11-05T17:25:48.859Z,10.30
2022-11-05T17:28:17.801Z,10.30
2022-11-05T17:30:52.154Z,10.20
2022-11-05T17:33:21.774Z,10.20
2022-11-05T17:35:49.915Z,10.20
2022-11-05T17:38:18.070Z,10.20
2022-11-05T17:40:47.627Z,10.30
2022-11-05T17:43:16.396Z,10.20
2022-11-05T17:45:45.716Z,10.20
2022-11-05T17:48:14.704Z,10.20
2022-11-05T17:50:43.093Z,10.10
2022-11-05T17:53:11.874Z,10.10
2022-11-05T17:55:41.744Z,10.20
2022-11-05T17:58:11.686Z,10.20
2022-11-05T18:00:40.832Z,10.20
2022-11-05T18:03:09.561Z,10.20
2022-11-05T18:05:38.001Z,10.20
2022-11-05T18:08:06.713Z,10.20
2022-11-05T18:10:34.726Z,10.10
2022-11-05T18:13:03.085Z,10.20
2022-11-05T18:15:32.506Z,10.20
2022-11-05T18:18:00.523Z,10.30
2022-11-05T18:20:28.579Z,10.20
2022-11-05T18:22:56.712Z,10.20
2022-11-05T18:25:24.738Z,10.20
2022-11-05T18:27:53.334Z,10.30
2022-11-05T18:30:21.738Z,10.30
2022-11-05T18:32:51.399Z,10.30
2022-11-05T18:35:19.545Z,10.20
2022-11-05T18:37:47.914Z,10.20
2022-11-05T18:40:15.962Z,10.20
2022-11-05T18:42:44.102Z,10.20
2022-11-05T18:45:13.170Z,10.20
2022-11-05T18:47:41.328Z,10.20
2022-11-05T18:50:11.594Z,10.20
2022-11-05T18:52:39.599Z,10.20
2022-11-05T18:55:08.958Z,10.20
2022-11-05T18:57:37.065Z,10.30
2022-11-05T19:00:06.237Z,10.20
2022-11-05T19:02:34.374Z,10.20
2022-11-05T19:07:52.152Z,10.20
2022-11-05T19:10:20.314Z,10.10
2022-11-05T19:12:48.288Z,10.20
2022-11-05T19:15:16.414Z,10.10
2022-11-05T19:17:44.894Z,10.20
2022-11-05T19:20:13.464Z,10.10
2022-11-05T19:22:41.545Z,10.20
2022-11-05T19:25:11.767Z,10.20
2022-11-05T19:27:39.954Z,10.20
2022-11-05T19:30:09.015Z,10.10
2022-11-05T19:32:37.197Z,10.20
2022-11-05T19:35:05.770Z,10.20
2022-11-05T19:37:33.831Z,10.20
2022-11-05T19:40:01.806Z,10.20
2022-11-05T19:42:31.145Z,10.20
2022-11-05T19:45:16.751Z,10.20
2022-11-05T19:47:47.489Z,10.20
2022-11-05T19:50:15.573Z,10.10
2022-11-05T19:52:43.849Z,10.00
2022-11-05T19:55:12.513Z,10.00
2022-11-05T19:57:42.027Z,10.10
2022-11-05T20:00:11.156Z,10.10
2022-11-05T20:02:39.600Z,10.00
2022-11-05T20:05:07.874Z,10.10
2022-11-05T20:07:35.890Z,10.10
2022-11-05T20:10:04.072Z,10.00
2022-11-05T20:12:32.064Z,10.10
2022-11-05T20:15:01.628Z,10.10
2022-11-05T20:17:29.699Z,10.00
2022-11-05T20:19:57.712Z,10.10
2022-11-05T20:22:25.868Z,10.10
2022-11-05T20:24:53.888Z,10.00
2022-11-05T20:27:21.941Z,10.00
2022-11-05T20:29:50.001Z,9.90
2022-11-05T20:32:22.071Z,10.00
2022-11-05T20:34:50.064Z,10.10
2022-11-05T20:37:18.531Z,10.00
2022-11-05T20:39:46.646Z,10.00
2022-11-05T20:42:14.664Z,10.10
2022-11-05T20:44:42.716Z,10.00
2022-11-05T20:47:11.558Z,10.00
2022-11-05T20:49:40.963Z,10.00
2022-11-05T20:52:09.078Z,10.00
2022-11-05T20:54:37.807Z,9.90
2022-11-05T20:57:06.223Z,10.00
2022-11-05T20:59:34.242Z,10.00
2022-11-05T21:02:02.731Z,10.00
2022-11-05T21:04:30.949Z,9.90
2022-11-05T21:07:00.762Z,10.00
2022-11-05T21:09:28.934Z,9.90
2022-11-05T21:12:11.973Z,9.80
2022-11-05T21:14:40.598Z,9.80
2022-11-05T21:17:10.003Z,9.80
2022-11-05T21:19:38.098Z,9.80
2022-11-05T21:22:07.930Z,9.80
2022-11-05T21:24:36.325Z,9.90
2022-11-05T21:27:04.364Z,9.90
2022-11-05T21:29:32.439Z,9.80
2022-11-05T21:32:00.830Z,9.90
2022-11-05T21:34:29.195Z,9.80
2022-11-05T21:36:57.241Z,9.80
2022-11-05T21:39:27.694Z,9.80
2022-11-05T21:41:55.734Z,9.90
2022-11-05T21:44:23.720Z,9.80
2022-11-05T21:46:52.464Z,9.70
2022-11-05T21:49:20.547Z,9.80
2022-11-05T21:52:05.890Z,9.70
2022-11-05T21:54:53.012Z,9.70
2022-11-05T21:57:38.498Z,9.80
2022-11-05T22:00:09.728Z,9.80
2022-11-05T22:02:38.309Z,9.80
2022-11-05T22:05:07.609Z,9.70
2022-11-05T22:07:39.768Z,9.60
2022-11-05T22:10:16.175Z,9.70
2022-11-05T22:12:52.611Z,9.70
2022-11-05T22:15:25.079Z,9.70
2022-11-05T22:17:55.270Z,9.60
2022-11-05T22:20:26.772Z,9.70
2022-11-05T22:23:10.933Z,9.60
2022-11-05T22:25:41.700Z,9.50
2022-11-05T22:28:10.208Z,9.50
2022-11-05T22:30:38.610Z,9.60
2022-11-05T22:33:06.588Z,9.60
2022-11-05T22:35:34.603Z,9.50
2022-11-05T22:38:02.859Z,9.50
2022-11-05T22:40:30.857Z,9.60
2022-11-05T22:43:00.576Z,9.50
2022-11-05T22:45:28.647Z,9.60
2022-11-05T22:47:56.675Z,9.50
